Time;durP1;ratioP1;P1;durP2;ratioP2;P2;SDS_P1;SDS_P2;PMS_P1;PMS_P2;Temp;Humidity;BMP_temperature;BMP_pressure;BME280_temperature;BME280_humidity;BME280_pressure;Samples;Min_cycle;Max_cycle;Signal;HPM_P1;HPM_P2
2022/07/20 00:01:33;;;;;;;2.80;1.27;;;25.10;61.80;;;;;;4981479;28;20029;-86
2022/07/20 00:04:02;;;;;;;2.13;1.05;;;25.00;61.60;;;;;;4999102;28;20474;-85
2022/07/20 00:06:27;;;;;;;4.43;1.25;;;25.00;61.90;;;;;;4994362;28;20022;-85
2022/07/20 00:11:37;;;;;;;2.85;1.23;;;24.90;62.10;;;;;;4995617;28;20540;-85
2022/07/20 00:14:03;;;;;;;3.15;1.05;;;24.80;62.40;;;;;;4977735;28;20022;-86
2022/07/20 00:16:32;;;;;;;4.10;1.30;;;24.80;62.30;;;;;;4979340;28;20022;-85
2022/07/20 00:18:58;;;;;;;3.55;1.40;;;24.70;62.10;;;;;;4995337;28;20022;-86
2022/07/20 00:21:23;;;;;;;2.20;1.13;;;24.70;62.30;;;;;;4998476;28;20033;-86
2022/07/20 00:23:50;;;;;;;4.07;1.20;;;24.60;62.60;;;;;;4995373;28;20046;-85
2022/07/20 00:26:18;;;;;;;4.40;1.20;;;24.60;62.90;;;;;;4980999;28;20018;-86
2022/07/20 00:31:12;;;;;;;3.50;1.38;;;24.60;62.50;;;;;;5013048;28;20057;-85
2022/07/20 00:33:38;;;;;;;3.65;1.25;;;24.60;62.80;;;;;;4993168;28;20517;-85
2022/07/20 00:36:04;;;;;;;2.88;1.30;;;24.60;62.80;;;;;;4997456;28;20532;-84
2022/07/20 00:38:29;;;;;;;3.53;1.23;;;24.60;63.20;;;;;;5009157;28;20032;-84
2022/07/20 00:40:55;;;;;;;3.40;1.30;;;24.50;62.80;;;;;;4979758;28;20027;-85
2022/07/20 00:43:21;;;;;;;2.38;1.15;;;24.40;62.70;;;;;;4979676;28;20033;-85
2022/07/20 00:45:46;;;;;;;2.60;1.02;;;24.40;63.10;;;;;;4983499;28;20022;-85
2022/07/20 00:48:12;;;;;;;2.58;1.05;;;24.40;63.00;;;;;;4981752;28;20036;-85
2022/07/20 00:50:39;;;;;;;3.03;0.90;;;24.40;63.30;;;;;;4981220;28;20019;-85
2022/07/20 00:53:05;;;;;;;2.53;1.17;;;24.40;63.50;;;;;;4980039;28;20176;-85
2022/07/20 00:55:31;;;;;;;3.17;1.00;;;24.40;63.40;;;;;;4999111;28;20014;-84
2022/07/20 00:57:57;;;;;;;2.60;1.10;;;24.30;63.50;;;;;;4997201;28;20066;-85
2022/07/20 01:00:22;;;;;;;3.47;1.45;;;24.30;63.50;;;;;;4981693;28;20042;-85
2022/07/20 01:02:48;;;;;;;2.38;1.02;;;24.30;63.40;;;;;;4984745;28;20461;-85
2022/07/20 01:05:14;;;;;;;2.80;1.20;;;24.20;63.50;;;;;;4984713;28;20058;-85
2022/07/20 01:07:49;;;;;;;2.53;0.95;;;24.20;63.90;;;;;;4982487;28;20030;-85
2022/07/20 01:10:16;;;;;;;2.83;1.13;;;24.10;64.50;;;;;;5001651;28;20026;-84
2022/07/20 01:12:49;;;;;;;3.55;1.60;;;24.10;64.50;;;;;;4985743;28;20049;-85
2022/07/20 01:15:16;;;;;;;3.00;1.02;;;24.10;64.80;;;;;;4986160;28;20043;-85
2022/07/20 01:17:42;;;;;;;5.13;1.15;;;24.00;64.80;;;;;;4982002;28;20440;-85
2022/07/20 01:20:14;;;;;;;3.60;1.20;;;24.00;65.40;;;;;;4982140;28;20028;-85
2022/07/20 01:22:39;;;;;;;3.40;1.40;;;23.90;65.60;;;;;;4989299;28;20038;-85
2022/07/20 01:25:05;;;;;;;2.85;1.23;;;23.90;66.40;;;;;;4976393;28;20105;-85
2022/07/20 01:27:32;;;;;;;2.58;1.13;;;23.80;65.90;;;;;;4975537;28;20026;-85
2022/07/20 01:29:58;;;;;;;2.47;0.90;;;23.70;66.10;;;;;;4992047;28;20455;-85
2022/07/20 01:32:24;;;;;;;3.28;1.00;;;23.70;66.30;;;;;;4994096;28;20101;-85
2022/07/20 01:34:49;;;;;;;2.92;1.02;;;23.70;66.40;;;;;;4976046;28;20052;-84
2022/07/20 01:37:15;;;;;;;2.67;1.25;;;23.70;66.60;;;;;;4976269;28;20052;-85
2022/07/20 01:39:41;;;;;;;4.70;1.50;;;23.60;67.00;;;;;;4976087;28;20034;-84
2022/07/20 01:42:06;;;;;;;4.95;1.23;;;23.50;67.00;;;;;;4995817;28;20026;-85
2022/07/20 01:44:32;;;;;;;2.28;1.10;;;23.50;67.20;;;;;;4979626;28;20037;-84
2022/07/20 01:46:57;;;;;;;3.15;1.30;;;23.40;67.10;;;;;;4990893;28;20042;-85
2022/07/20 01:49:23;;;;;;;3.80;1.13;;;23.40;67.30;;;;;;4993178;28;20128;-85
2022/07/20 01:51:49;;;;;;;3.20;1.02;;;23.40;67.50;;;;;;4993289;28;20023;-84
2022/07/20 01:54:14;;;;;;;2.72;1.40;;;23.30;67.60;;;;;;4992830;28;20015;-85
2022/07/20 01:56:41;;;;;;;2.50;1.10;;;23.30;67.60;;;;;;4991374;28;20078;-84
2022/07/20 01:59:07;;;;;;;3.28;1.25;;;23.30;68.10;;;;;;4974324;28;20019;-84
2022/07/20 02:01:33;;;;;;;3.13;1.10;;;23.20;68.00;;;;;;4975723;28;20093;-85
2022/07/20 02:03:59;;;;;;;3.88;1.20;;;23.20;68.00;;;;;;4974019;28;20395;-84
2022/07/20 02:06:24;;;;;;;3.00;1.33;;;23.20;68.10;;;;;;4990634;28;20038;-84
2022/07/20 02:08:50;;;;;;;3.75;1.20;;;23.10;68.00;;;;;;4975042;28;20026;-85
2022/07/20 02:11:16;;;;;;;2.78;1.10;;;23.10;68.00;;;;;;4975344;28;20459;-85
2022/07/20 02:13:41;;;;;;;2.72;1.20;;;23.10;67.90;;;;;;4976998;28;20477;-84
2022/07/20 02:16:16;;;;;;;3.83;2.03;;;23.00;67.90;;;;;;4976241;28;20113;-85
2022/07/20 02:18:50;;;;;;;2.60;0.88;;;23.00;68.10;;;;;;4980318;28;20018;-84
2022/07/20 02:21:17;;;;;;;3.95;1.10;;;23.00;68.50;;;;;;4978912;28;20034;-85
2022/07/20 02:23:43;;;;;;;3.17;1.10;;;23.00;68.30;;;;;;5001323;28;20030;-85
2022/07/20 02:26:09;;;;;;;2.83;1.13;;;22.90;68.70;;;;;;4990622;28;20057;-85
2022/07/20 02:28:35;;;;;;;2.13;1.13;;;22.90;68.70;;;;;;4991600;28;20030;-84
2022/07/20 02:31:01;;;;;;;3.17;1.20;;;22.90;68.90;;;;;;4978148;28;20105;-84
2022/07/20 02:33:26;;;;;;;2.72;0.90;;;22.90;68.80;;;;;;4976705;28;20489;-84
2022/07/20 02:35:52;;;;;;;4.57;1.15;;;22.90;69.10;;;;;;4976249;28;20053;-85
2022/07/20 02:38:18;;;;;;;2.25;1.15;;;22.90;69.20;;;;;;4977869;28;20117;-84
2022/07/20 02:40:44;;;;;;;2.78;1.10;;;22.90;69.30;;;;;;4976242;28;20368;-84
2022/07/20 02:43:09;;;;;;;3.25;1.38;;;22.80;69.30;;;;;;4975932;28;20474;-84
2022/07/20 02:45:35;;;;;;;5.18;1.75;;;22.90;69.50;;;;;;4976138;28;20018;-85
2022/07/20 02:48:04;;;;;;;2.47;1.20;;;22.80;69.50;;;;;;4993241;28;20019;-84
2022/07/20 02:50:36;;;;;;;2.40;0.98;;;22.80;69.70;;;;;;4992998;28;20050;-84
2022/07/20 02:53:03;;;;;;;4.22;1.20;;;22.70;69.60;;;;;;4973690;28;20123;-84
2022/07/20 02:55:28;;;;;;;3.45;1.17;;;22.70;69.80;;;;;;4974390;28;20023;-84
2022/07/20 02:57:54;;;;;;;4.13;1.20;;;22.70;69.80;;;;;;4995611;28;20025;-84
2022/07/20 03:00:20;;;;;;;2.53;0.88;;;22.70;70.20;;;;;;4993478;28;20026;-85
2022/07/20 03:02:49;;;;;;;2.35;1.30;;;22.60;70.30;;;;;;4974117;28;20033;-85
2022/07/20 03:05:15;;;;;;;3.20;1.20;;;22.60;70.50;;;;;;4994550;28;20066;-84
2022/07/20 03:07:41;;;;;;;3.35;1.25;;;22.60;70.50;;;;;;4994600;28;20018;-84
2022/07/20 03:10:08;;;;;;;3.92;1.55;;;22.50;70.50;;;;;;4973473;28;20576;-84
2022/07/20 03:12:33;;;;;;;2.97;1.08;;;22.50;70.60;;;;;;4975307;28;20157;-85
2022/07/20 03:14:59;;;;;;;3.60;1.38;;;22.50;70.80;;;;;;4974595;28;20113;-85
2022/07/20 03:17:24;;;;;;;3.10;1.45;;;22.50;70.80;;;;;;4975928;28;20379;-85
2022/07/20 03:19:54;;;;;;;3.80;1.17;;;22.40;70.80;;;;;;4976502;28;20093;-84
2022/07/20 03:22:20;;;;;;;3.75;0.98;;;22.40;70.90;;;;;;4989544;28;20102;-85
2022/07/20 03:24:45;;;;;;;3.53;1.33;;;22.30;71.10;;;;;;4975534;28;20493;-85
2022/07/20 03:27:11;;;;;;;4.03;1.20;;;22.30;71.30;;;;;;4976042;28;20426;-84
2022/07/20 03:29:37;;;;;;;2.88;1.30;;;22.20;71.30;;;;;;4983616;28;20121;-85
2022/07/20 03:32:03;;;;;;;3.72;1.27;;;22.20;71.40;;;;;;4992841;28;20083;-85
2022/07/20 03:34:29;;;;;;;2.58;1.20;;;22.20;71.50;;;;;;4992243;28;20034;-85
2022/07/20 03:36:55;;;;;;;2.10;0.90;;;22.20;71.70;;;;;;4974464;28;20030;-85
2022/07/20 03:39:20;;;;;;;4.10;1.25;;;22.20;71.60;;;;;;4995458;28;20078;-84
2022/07/20 03:41:46;;;;;;;2.08;1.00;;;22.20;71.80;;;;;;4993553;28;20022;-84
2022/07/20 03:44:12;;;;;;;3.08;1.15;;;22.20;71.70;;;;;;4975164;28;20019;-84
2022/07/20 03:46:37;;;;;;;2.72;0.98;;;22.20;71.50;;;;;;4994424;28;20022;-84
2022/07/20 03:49:03;;;;;;;2.90;1.50;;;22.20;71.20;;;;;;4975976;28;20034;-85
2022/07/20 03:51:29;;;;;;;3.60;1.15;;;22.20;71.30;;;;;;4975811;28;20014;-84
2022/07/20 03:53:55;;;;;;;2.90;1.05;;;22.20;71.10;;;;;;4989991;28;20475;-85
2022/07/20 03:56:20;;;;;;;2.05;0.90;;;22.30;71.00;;;;;;4991855;28;20019;-85
2022/07/20 03:58:46;;;;;;;2.22;1.15;;;22.30;71.00;;;;;;4974795;28;20029;-84
2022/07/20 04:01:11;;;;;;;3.30;1.23;;;22.30;70.90;;;;;;4993307;28;20043;-84
2022/07/20 04:03:37;;;;;;;2.20;0.90;;;22.20;70.80;;;;;;4975410;28;20022;-84
2022/07/20 04:06:03;;;;;;;3.15;0.82;;;22.30;71.00;;;;;;4991816;28;20406;-85
2022/07/20 04:08:29;;;;;;;7.85;1.30;;;22.30;70.70;;;;;;4992748;28;20032;-84
2022/07/20 04:10:54;;;;;;;2.10;0.95;;;22.30;70.70;;;;;;4972022;28;20026;-85
2022/07/20 04:13:20;;;;;;;2.80;1.00;;;22.30;70.60;;;;;;4989401;28;20023;-84
2022/07/20 04:15:45;;;;;;;2.80;1.13;;;22.30;70.80;;;;;;4973063;28;20472;-84
2022/07/20 04:18:11;;;;;;;2.90;1.10;;;22.30;71.00;;;;;;4990822;28;20023;-84
2022/07/20 04:20:37;;;;;;;2.55;1.17;;;22.30;71.50;;;;;;4975038;28;20027;-84
2022/07/20 04:23:03;;;;;;;4.07;1.35;;;22.30;70.80;;;;;;4973975;28;20318;-84
2022/07/20 04:25:28;;;;;;;3.22;1.35;;;22.30;70.90;;;;;;4974514;28;20033;-85
2022/07/20 04:27:54;;;;;;;2.60;1.00;;;22.30;71.40;;;;;;4975719;28;20157;-85
2022/07/20 04:30:20;;;;;;;3.17;1.40;;;22.40;71.80;;;;;;4995318;28;20022;-84
2022/07/20 04:32:45;;;;;;;3.88;1.23;;;22.40;71.20;;;;;;4978786;28;20101;-85
2022/07/20 04:35:11;;;;;;;3.08;1.13;;;22.40;71.30;;;;;;4977294;28;20627;-85
2022/07/20 04:37:37;;;;;;;3.17;1.05;;;22.40;70.80;;;;;;4977093;28;20018;-85
2022/07/20 04:40:05;;;;;;;2.85;1.10;;;22.40;70.80;;;;;;4976908;28;20408;-83
2022/07/20 04:42:31;;;;;;;3.08;1.00;;;22.40;71.60;;;;;;4974868;28;20026;-83
2022/07/20 04:44:57;;;;;;;5.28;1.08;;;22.50;71.70;;;;;;4995951;28;20323;-82
2022/07/20 04:47:22;;;;;;;3.10;1.10;;;22.60;71.70;;;;;;4975955;28;20459;-83
2022/07/20 04:49:48;;;;;;;2.50;1.10;;;22.60;71.60;;;;;;4977547;28;20030;-82
2022/07/20 04:52:14;;;;;;;2.75;1.17;;;22.70;71.60;;;;;;4976947;28;20018;-82
2022/07/20 04:54:41;;;;;;;5.63;1.70;;;22.80;71.50;;;;;;4991875;28;20022;-82
2022/07/20 04:57:06;;;;;;;4.45;1.20;;;22.80;71.30;;;;;;4976188;28;20030;-82
2022/07/20 04:59:32;;;;;;;4.20;0.80;;;22.90;71.70;;;;;;4975375;28;20024;-82
2022/07/20 05:01:58;;;;;;;2.83;1.40;;;23.00;71.00;;;;;;4989694;28;20023;-83
2022/07/20 05:04:23;;;;;;;2.97;1.02;;;23.00;71.00;;;;;;4975889;28;20113;-83
2022/07/20 05:06:49;;;;;;;4.30;1.00;;;23.10;70.90;;;;;;4975380;28;20049;-83
2022/07/20 05:09:14;;;;;;;3.70;1.45;;;23.10;70.90;;;;;;4992089;28;20490;-82
2022/07/20 05:11:40;;;;;;;3.63;1.20;;;23.20;70.80;;;;;;4975129;28;20029;-83
2022/07/20 05:14:08;;;;;;;2.58;1.10;;;23.20;71.00;;;;;;4994730;28;20022;-83
2022/07/20 05:16:34;;;;;;;2.85;1.15;;;23.20;70.90;;;;;;4977185;28;20398;-82
2022/07/20 05:19:00;;;;;;;2.80;1.15;;;23.20;71.00;;;;;;4988780;28;20026;-83
2022/07/20 05:21:25;;;;;;;2.55;1.17;;;23.30;71.40;;;;;;4997051;28;20026;-83
2022/07/20 05:23:51;;;;;;;4.20;1.20;;;23.40;71.10;;;;;;4992501;28;20142;-82
2022/07/20 05:26:17;;;;;;;2.67;1.20;;;23.40;70.90;;;;;;4997484;28;20037;-83
2022/07/20 05:28:42;;;;;;;2.92;1.15;;;23.50;71.20;;;;;;4992386;28;20103;-83
2022/07/20 05:31:09;;;;;;;3.30;0.98;;;23.40;71.20;;;;;;4977467;28;20038;-83
2022/07/20 05:33:35;;;;;;;2.65;1.13;;;23.40;71.50;;;;;;4975106;28;20355;-83
2022/07/20 05:36:02;;;;;;;3.35;1.40;;;23.30;71.80;;;;;;4990378;28;20101;-84
2022/07/20 05:38:29;;;;;;;4.18;1.20;;;23.20;72.50;;;;;;4991904;28;20022;-82
2022/07/20 05:40:55;;;;;;;3.13;1.10;;;23.10;72.40;;;;;;4974555;28;20053;-82
2022/07/20 05:43:21;;;;;;;2.28;0.93;;;23.10;72.30;;;;;;4973493;28;20057;-82
2022/07/20 05:45:47;;;;;;;2.88;1.13;;;23.20;72.60;;;;;;4996866;28;20057;-82
2022/07/20 05:48:13;;;;;;;3.13;1.50;;;23.30;72.50;;;;;;4992011;28;20395;-82
2022/07/20 05:50:40;;;;;;;2.58;1.23;;;23.50;72.10;;;;;;4975021;28;20022;-82
2022/07/20 05:53:06;;;;;;;2.83;1.23;;;23.60;71.60;;;;;;4973831;28;20019;-82
2022/07/20 05:55:34;;;;;;;2.15;1.00;;;23.60;71.40;;;;;;4968186;28;20182;-81
2022/07/20 05:58:00;;;;;;;3.47;1.20;;;23.70;71.20;;;;;;4974757;28;20049;-82
2022/07/20 06:00:25;;;;;;;4.35;0.95;;;23.90;71.10;;;;;;4985173;28;20148;-82
2022/07/20 06:02:51;;;;;;;3.10;1.20;;;24.10;70.80;;;;;;4974254;28;20113;-83
2022/07/20 06:05:16;;;;;;;3.60;1.38;;;24.10;71.10;;;;;;4992242;28;20022;-83
2022/07/20 06:07:42;;;;;;;5.13;1.30;;;24.30;71.00;;;;;;4991810;28;20080;-83
2022/07/20 06:10:08;;;;;;;5.20;1.52;;;24.40;71.00;;;;;;4971697;28;20031;-83
2022/07/20 06:12:34;;;;;;;4.18;1.40;;;24.40;71.20;;;;;;4992565;28;20019;-83
2022/07/20 06:15:00;;;;;;;3.75;1.73;;;24.50;71.00;;;;;;4974738;28;20026;-82
2022/07/20 06:17:36;;;;;;;4.10;1.58;;;24.60;70.00;;;;;;4973895;28;20475;-82
2022/07/20 06:20:07;;;;;;;3.53;1.63;;;24.60;69.90;;;;;;4987750;28;20042;-83
2022/07/20 06:22:34;;;;;;;3.10;1.38;;;24.60;69.90;;;;;;4974336;28;20022;-83
2022/07/20 06:25:00;;;;;;;4.03;1.55;;;24.70;70.30;;;;;;4974696;28;20077;-83
2022/07/20 06:27:26;;;;;;;4.07;1.67;;;24.70;69.60;;;;;;4990391;28;20495;-83
2022/07/20 06:29:51;;;;;;;3.67;1.73;;;24.90;69.40;;;;;;4974630;28;20121;-82
2022/07/20 06:32:17;;;;;;;4.32;1.48;;;24.90;69.50;;;;;;4974421;28;20072;-83
2022/07/20 06:34:43;;;;;;;4.20;1.50;;;24.90;69.60;;;;;;5015709;22;20141;-89
2022/07/20 06:37:09;;;;;;;3.63;1.70;;;24.90;69.80;;;;;;4996992;28;20085;-88
2022/07/20 06:39:34;;;;;;;3.65;1.60;;;24.90;70.50;;;;;;4993636;28;20025;-88
2022/07/20 06:42:00;;;;;;;4.15;1.48;;;24.70;70.40;;;;;;4995981;28;20022;-88
2022/07/20 06:44:26;;;;;;;5.10;1.80;;;24.70;71.00;;;;;;4988649;28;20502;-87
2022/07/20 06:46:51;;;;;;;4.13;1.63;;;24.90;71.20;;;;;;4990046;28;20034;-88
2022/07/20 06:49:17;;;;;;;4.72;2.03;;;25.10;70.90;;;;;;4978509;28;20068;-87
2022/07/20 06:51:42;;;;;;;3.80;1.70;;;25.30;70.80;;;;;;4987203;28;20018;-87
2022/07/20 06:54:08;;;;;;;3.70;1.92;;;25.50;70.90;;;;;;4987835;28;20376;-87
2022/07/20 06:56:34;;;;;;;4.35;1.80;;;25.60;71.60;;;;;;5002298;28;20042;-87
2022/07/20 06:58:59;;;;;;;2.78;1.65;;;25.80;72.40;;;;;;4975872;28;20058;-87
2022/07/20 07:01:25;;;;;;;4.43;1.70;;;26.00;70.60;;;;;;5006604;28;20038;-87
2022/07/20 07:03:51;;;;;;;3.88;1.50;;;26.10;70.70;;;;;;4987905;28;20040;-88
2022/07/20 07:06:16;;;;;;;4.85;1.90;;;26.30;70.20;;;;;;4985691;28;20121;-88
2022/07/20 07:08:42;;;;;;;3.17;1.60;;;26.40;69.40;;;;;;4984194;28;20052;-87
2022/07/20 07:11:08;;;;;;;4.57;1.98;;;26.60;68.30;;;;;;4991949;28;20041;-88
2022/07/20 07:13:33;;;;;;;4.57;2.13;;;26.70;68.30;;;;;;4984949;28;20020;-87
2022/07/20 07:15:59;;;;;;;6.50;1.58;;;26.70;68.10;;;;;;5004276;28;20033;-88
2022/07/20 07:18:25;;;;;;;4.78;1.80;;;26.70;69.10;;;;;;4983404;28;20034;-89
2022/07/20 07:20:53;;;;;;;3.30;1.50;;;27.00;69.70;;;;;;4999880;28;20022;-89
2022/07/20 07:23:19;;;;;;;3.50;1.70;;;27.30;68.90;;;;;;5003668;28;20044;-88
2022/07/20 07:25:45;;;;;;;4.25;1.85;;;27.50;68.60;;;;;;4990311;28;20030;-88
2022/07/20 07:28:10;;;;;;;3.38;1.60;;;27.50;67.80;;;;;;4985781;28;20026;-88
2022/07/20 07:30:36;;;;;;;4.00;1.48;;;27.80;68.30;;;;;;4991189;28;20028;-88
2022/07/20 07:33:01;;;;;;;3.40;1.60;;;27.80;67.20;;;;;;5011640;28;20030;-88
2022/07/20 07:35:27;;;;;;;3.60;1.58;;;27.80;68.20;;;;;;5025664;28;20027;-88
2022/07/20 07:37:53;;;;;;;4.53;1.83;;;27.60;66.90;;;;;;5006089;28;20018;-88
2022/07/20 07:40:18;;;;;;;4.28;1.65;;;27.60;67.20;;;;;;5013412;28;20034;-90
2022/07/20 07:42:44;;;;;;;3.20;1.38;;;27.80;66.70;;;;;;5033406;28;20014;-88
2022/07/20 07:45:10;;;;;;;3.20;1.58;;;28.10;67.10;;;;;;4984371;28;20505;-88
2022/07/20 07:47:36;;;;;;;3.85;1.55;;;28.30;66.40;;;;;;5000937;28;20403;-88
2022/07/20 07:50:03;;;;;;;4.03;1.70;;;28.50;65.00;;;;;;4987196;28;20113;-89
2022/07/20 07:52:29;;;;;;;4.88;1.75;;;28.70;65.80;;;;;;4980063;28;20073;-87
2022/07/20 07:54:54;;;;;;;3.85;1.60;;;28.90;65.90;;;;;;4995911;28;20015;-88
2022/07/20 07:57:20;;;;;;;5.35;1.67;;;29.00;66.50;;;;;;4989533;28;20026;-89
2022/07/20 07:59:46;;;;;;;4.32;2.05;;;29.20;65.20;;;;;;4982431;28;20026;-89
2022/07/20 08:02:11;;;;;;;2.63;1.33;;;29.20;64.00;;;;;;4985553;28;20030;-89
2022/07/20 08:04:37;;;;;;;2.88;1.17;;;29.40;64.80;;;;;;5003661;28;20026;-89
2022/07/20 08:07:03;;;;;;;6.03;1.70;;;29.70;63.80;;;;;;4985121;28;20069;-88
2022/07/20 08:09:29;;;;;;;3.15;1.70;;;29.40;63.70;;;;;;4987909;28;20530;-89
2022/07/20 08:11:55;;;;;;;2.67;1.52;;;29.40;64.00;;;;;;4988261;28;20018;-89
2022/07/20 08:14:21;;;;;;;3.20;1.70;;;29.50;63.40;;;;;;4992237;28;20022;-89
2022/07/20 08:16:46;;;;;;;3.75;1.80;;;29.70;63.60;;;;;;4989632;28;20018;-89
2022/07/20 08:19:12;;;;;;;4.18;1.60;;;29.90;65.00;;;;;;5002185;28;20022;-88
2022/07/20 08:21:38;;;;;;;4.25;1.90;;;30.10;61.80;;;;;;4986205;28;20018;-89
2022/07/20 08:24:05;;;;;;;3.50;1.67;;;30.30;62.70;;;;;;4995825;28;20037;-89
2022/07/20 08:26:31;;;;;;;3.58;1.45;;;30.40;63.20;;;;;;4994145;28;20041;-89
2022/07/20 08:28:57;;;;;;;6.35;1.90;;;30.40;62.40;;;;;;4987822;28;20569;-89
2022/07/20 08:31:22;;;;;;;2.90;1.40;;;30.50;62.40;;;;;;4994785;28;20023;-90
2022/07/20 08:33:48;;;;;;;4.13;1.85;;;30.50;62.90;;;;;;5012869;28;20112;-89
2022/07/20 08:36:14;;;;;;;5.50;1.52;;;30.70;62.90;;;;;;5004535;28;20491;-89
2022/07/20 08:38:39;;;;;;;3.85;1.77;;;30.80;61.90;;;;;;4988443;28;20036;-89
2022/07/20 08:41:08;;;;;;;3.67;1.60;;;30.80;62.40;;;;;;5006582;28;20085;-90
2022/07/20 08:43:34;;;;;;;3.03;1.40;;;30.80;61.80;;;;;;4995758;28;20081;-89
2022/07/20 08:46:01;;;;;;;5.00;1.40;;;31.00;62.50;;;;;;5003288;28;20380;-89
2022/07/20 08:48:27;;;;;;;3.28;1.60;;;31.20;62.40;;;;;;4990835;28;20029;-89
2022/07/20 08:50:53;;;;;;;3.97;1.70;;;31.30;61.70;;;;;;5006181;28;20030;-89
2022/07/20 08:53:21;;;;;;;6.03;1.60;;;31.50;59.70;;;;;;4999077;28;20106;-89
2022/07/20 08:55:47;;;;;;;2.63;1.52;;;31.60;60.40;;;;;;5004665;28;20102;-90
2022/07/20 08:58:13;;;;;;;2.30;1.08;;;31.70;60.10;;;;;;4987607;28;20025;-89
2022/07/20 09:00:39;;;;;;;3.38;1.20;;;31.80;60.30;;;;;;4988421;28;20037;-90
2022/07/20 09:03:07;;;;;;;3.38;1.10;;;32.00;59.50;;;;;;4981113;28;20027;-89
2022/07/20 09:06:11;;;;;;;6.65;1.50;;;32.10;59.00;;;;;;4985823;28;20368;-89
2022/07/20 09:09:01;;;;;;;3.92;1.50;;;32.30;59.60;;;;;;4988332;28;20033;-88
2022/07/20 09:11:30;;;;;;;3.58;1.63;;;32.40;59.10;;;;;;4984341;28;20014;-90
2022/07/20 09:14:01;;;;;;;6.60;1.17;;;32.20;58.80;;;;;;5008106;28;20026;-89
2022/07/20 09:16:40;;;;;;;3.03;1.13;;;32.10;59.20;;;;;;5010803;28;20379;-90
2022/07/20 09:19:14;;;;;;;4.05;1.40;;;32.30;58.80;;;;;;5011036;28;20034;-88
2022/07/20 09:21:41;;;;;;;2.88;1.63;;;32.50;58.10;;;;;;4997637;28;20026;-89
2022/07/20 09:24:10;;;;;;;2.65;1.40;;;32.80;57.60;;;;;;5002307;28;20032;-89
2022/07/20 09:26:38;;;;;;;3.22;1.35;;;32.90;57.20;;;;;;4990415;28;20022;-87
2022/07/20 09:29:07;;;;;;;2.88;1.40;;;33.10;58.00;;;;;;4991613;28;20033;-87
2022/07/20 09:32:10;;;;;;;3.55;1.40;;;32.80;57.30;;;;;;4987737;28;20094;-87
2022/07/20 09:34:37;;;;;;;2.75;1.17;;;32.60;57.40;;;;;;4983503;28;20030;-87
2022/07/20 09:37:16;;;;;;;2.60;1.45;;;32.80;57.60;;;;;;5007556;28;20869;-87
2022/07/20 09:40:02;;;;;;;3.53;1.80;;;32.90;57.00;;;;;;4977040;28;20038;-88
2022/07/20 09:42:49;;;;;;;2.85;1.58;;;33.10;57.00;;;;;;5007005;28;20101;-88
2022/07/20 09:45:28;;;;;;;2.97;1.52;;;33.20;56.40;;;;;;4993836;28;20072;-87
2022/07/20 09:48:08;;;;;;;4.00;1.63;;;33.20;56.50;;;;;;4983786;28;20030;-87
2022/07/20 09:50:39;;;;;;;3.92;1.70;;;33.60;56.90;;;;;;4990692;28;20044;-87
2022/07/20 09:53:07;;;;;;;6.57;1.67;;;34.00;55.50;;;;;;4986043;28;20109;-88
2022/07/20 09:55:34;;;;;;;3.58;1.50;;;34.30;54.90;;;;;;4984715;28;20034;-89
2022/07/20 09:58:00;;;;;;;3.85;1.60;;;34.30;52.50;;;;;;4989719;28;20029;-89
2022/07/20 10:00:28;;;;;;;4.55;1.83;;;34.60;52.60;;;;;;4997800;28;20026;-89
2022/07/20 10:02:57;;;;;;;3.95;1.70;;;34.90;52.70;;;;;;4981915;28;20023;-89
2022/07/20 10:05:23;;;;;;;3.63;1.60;;;35.10;52.90;;;;;;4985849;28;20082;-87
2022/07/20 10:07:50;;;;;;;2.58;1.40;;;35.10;51.80;;;;;;4987591;28;20037;-88
2022/07/20 10:10:16;;;;;;;2.22;1.40;;;35.20;50.60;;;;;;4978233;28;20033;-86
2022/07/20 10:12:42;;;;;;;3.05;1.60;;;35.20;51.30;;;;;;4983880;28;20057;-87
2022/07/20 10:15:22;;;;;;;3.58;1.48;;;35.40;51.10;;;;;;4980275;28;20050;-87
2022/07/20 10:17:48;;;;;;;2.85;1.70;;;35.40;50.80;;;;;;4993155;28;20041;-87
2022/07/20 10:20:34;;;;;;;3.88;1.38;;;35.60;51.00;;;;;;4990822;28;20052;-86
2022/07/20 10:23:15;;;;;;;2.85;1.52;;;35.60;50.80;;;;;;4989730;28;20034;-86
2022/07/20 10:25:42;;;;;;;2.58;1.45;;;35.70;50.90;;;;;;4984305;28;20033;-87
2022/07/20 10:28:37;;;;;;;3.88;1.40;;;35.70;50.20;;;;;;5014929;28;20122;-87
2022/07/20 10:31:08;;;;;;;3.28;1.60;;;35.70;50.60;;;;;;4960046;28;20113;-87
2022/07/20 10:33:37;;;;;;;4.63;1.95;;;35.60;50.80;;;;;;4988192;28;20116;-86
2022/07/20 10:36:42;;;;;;;4.07;1.73;;;35.80;50.60;;;;;;4992081;28;20030;-86
2022/07/20 10:39:44;;;;;;;3.72;1.90;;;36.10;50.60;;;;;;4994507;28;20022;-87
2022/07/20 10:42:30;;;;;;;3.00;1.27;;;36.20;50.50;;;;;;4996660;28;20029;-86
2022/07/20 10:45:19;;;;;;;3.50;1.60;;;36.40;49.70;;;;;;5014064;28;20033;-87
2022/07/20 10:47:50;;;;;;;2.53;1.50;;;36.40;50.00;;;;;;4994727;28;20153;-89
2022/07/20 10:50:25;;;;;;;2.15;1.40;;;36.60;50.10;;;;;;4988983;28;20052;-89
2022/07/20 10:52:53;;;;;;;2.05;1.30;;;36.70;49.80;;;;;;4990910;28;20037;-89
2022/07/20 10:55:37;;;;;;;3.50;1.52;;;36.80;49.30;;;;;;4983676;28;20117;-89
2022/07/20 10:58:14;;;;;;;3.20;1.42;;;36.90;49.30;;;;;;5008971;28;20022;-90
2022/07/20 11:00:54;;;;;;;3.20;1.50;;;36.70;49.10;;;;;;4991953;28;20022;-89
2022/07/20 11:03:34;;;;;;;2.80;1.30;;;36.80;49.40;;;;;;4991049;28;20025;-89
2022/07/20 11:06:04;;;;;;;3.97;1.35;;;36.90;50.20;;;;;;4989481;28;20394;-89
2022/07/20 11:08:30;;;;;;;3.10;1.23;;;37.00;49.30;;;;;;4979874;28;20022;-90
2022/07/20 11:10:56;;;;;;;2.55;1.70;;;37.00;49.40;;;;;;4985049;28;20172;-89
2022/07/20 11:13:23;;;;;;;2.65;1.20;;;37.10;49.50;;;;;;4982950;28;20542;-89
2022/07/20 11:16:00;;;;;;;5.15;1.42;;;37.30;49.60;;;;;;4994762;28;20021;-89
2022/07/20 11:18:28;;;;;;;2.28;1.20;;;37.30;49.50;;;;;;5003774;28;20030;-87
2022/07/20 11:21:12;;;;;;;3.00;1.55;;;37.50;49.50;;;;;;5017315;28;20006;-87
2022/07/20 11:23:47;;;;;;;2.45;1.30;;;37.30;49.60;;;;;;5013197;28;20029;-88
2022/07/20 11:26:15;;;;;;;2.90;1.50;;;37.40;49.20;;;;;;5004441;28;20050;-89
2022/07/20 11:28:51;;;;;;;2.10;1.30;;;37.20;48.70;;;;;;4990577;28;20173;-89
2022/07/20 11:31:20;;;;;;;2.90;1.40;;;37.40;48.50;;;;;;4990607;28;20022;-89
2022/07/20 11:33:48;;;;;;;2.40;1.40;;;37.40;48.40;;;;;;5006097;28;20018;-87
2022/07/20 11:36:25;;;;;;;3.72;1.70;;;37.70;48.80;;;;;;4988031;28;20507;-87
2022/07/20 11:38:53;;;;;;;2.22;1.30;;;37.70;48.80;;;;;;4996459;28;20021;-86
2022/07/20 11:41:34;;;;;;;3.30;1.25;;;37.40;49.00;;;;;;5015079;28;20026;-86
2022/07/20 11:44:02;;;;;;;2.88;1.63;;;37.60;48.80;;;;;;5016414;28;20101;-88
2022/07/20 11:46:34;;;;;;;2.88;1.60;;;37.60;48.40;;;;;;4999982;28;20022;-87
2022/07/20 11:49:03;;;;;;;2.72;1.50;;;37.50;48.90;;;;;;5011987;28;20034;-87
2022/07/20 11:51:31;;;;;;;4.10;1.48;;;37.80;49.00;;;;;;5001121;28;20018;-88
2022/07/20 11:53:58;;;;;;;3.15;1.33;;;37.80;49.10;;;;;;4999313;28;20022;-87
2022/07/20 11:56:27;;;;;;;7.13;2.00;;;38.00;48.40;;;;;;4993556;28;20136;-87
2022/07/20 11:58:54;;;;;;;2.65;1.30;;;38.30;49.30;;;;;;5007777;28;20034;-87
2022/07/20 12:01:31;;;;;;;3.92;1.60;;;37.90;47.70;;;;;;4989987;28;20034;-87
2022/07/20 12:04:04;;;;;;;2.13;1.20;;;37.70;48.50;;;;;;4989327;28;20026;-87
2022/07/20 12:06:32;;;;;;;3.33;1.80;;;37.90;49.10;;;;;;5000469;28;20569;-88
2022/07/20 12:09:05;;;;;;;2.60;1.48;;;38.20;49.20;;;;;;4992660;28;20030;-87
2022/07/20 12:11:35;;;;;;;3.20;1.40;;;38.20;49.00;;;;;;4987049;28;20025;-87
2022/07/20 12:14:01;;;;;;;3.53;1.60;;;38.50;48.40;;;;;;4984579;28;20037;-87
2022/07/20 12:16:45;;;;;;;2.63;1.50;;;38.70;48.70;;;;;;4992144;28;20030;-87
2022/07/20 12:19:11;;;;;;;5.47;1.45;;;38.70;48.50;;;;;;5013678;28;20028;-87
2022/07/20 12:21:44;;;;;;;2.58;1.40;;;38.80;48.50;;;;;;4994121;28;20030;-88
2022/07/20 12:24:11;;;;;;;3.90;1.85;;;38.70;48.70;;;;;;5008987;28;20368;-88
2022/07/20 12:26:37;;;;;;;2.50;1.50;;;38.90;48.30;;;;;;4994107;28;20470;-87
2022/07/20 12:29:25;;;;;;;2.78;1.70;;;38.80;48.20;;;;;;4987208;28;20121;-86
2022/07/20 12:32:08;;;;;;;2.88;1.80;;;38.70;48.30;;;;;;4984373;28;20018;-87
2022/07/20 12:34:54;;;;;;;3.03;1.60;;;38.60;48.60;;;;;;4991308;28;20386;-87
2022/07/20 12:37:50;;;;;;;2.65;1.50;;;38.70;48.90;;;;;;5019505;22;20054;-87
2022/07/20 12:40:45;;;;;;;3.45;2.00;;;38.90;48.70;;;;;;4972630;28;20026;-87
2022/07/20 12:43:31;;;;;;;2.95;1.65;;;38.90;47.90;;;;;;4994639;28;20053;-87
2022/07/20 12:46:05;;;;;;;2.75;1.75;;;39.10;48.50;;;;;;4975183;28;20158;-88
2022/07/20 12:48:31;;;;;;;2.67;1.73;;;39.10;48.40;;;;;;4993346;28;20023;-88
2022/07/20 12:51:03;;;;;;;5.22;1.80;;;39.20;48.70;;;;;;4997628;28;20105;-87
2022/07/20 12:53:28;;;;;;;3.83;1.83;;;39.50;48.30;;;;;;4971975;28;20035;-87
2022/07/20 12:55:57;;;;;;;4.07;1.90;;;39.60;48.30;;;;;;4974077;28;20097;-87
2022/07/20 12:58:26;;;;;;;3.72;1.73;;;39.40;49.10;;;;;;4973248;28;20025;-87
2022/07/20 13:00:57;;;;;;;4.25;1.90;;;38.90;50.00;;;;;;4989455;28;20052;-88